sensor_id;sensor_type;location;lat;lon;timestamp;temperature;humidity
64143;DHT22;50437;51.970;5.904;2023-01-09T00:01:14;7.60;99.90
64143;DHT22;50437;51.970;5.904;2023-01-09T00:03:40;7.60;99.90
64143;DHT22;50437;51.970;5.904;2023-01-09T00:06:06;7.60;99.90
64143;DHT22;50437;51.970;5.904;2023-01-09T00:08:33;7.50;99.90
64143;DHT22;50437;51.970;5.904;2023-01-09T00:10:59;7.40;99.90
64143;DHT22;50437;51.970;5.904;2023-01-09T00:13:25;7.40;99.90
64143;DHT22;50437;51.970;5.904;2023-01-09T00:15:51;7.40;99.90
64143;DHT22;50437;51.970;5.904;2023-01-09T00:18:17;7.40;99.90
64143;DHT22;50437;51.970;5.904;2023-01-09T00:20:43;7.50;99.90
64143;DHT22;50437;51.970;5.904;2023-01-09T00:23:09;7.40;99.90
64143;DHT22;50437;51.970;5.904;2023-01-09T00:25:35;7.40;99.90
64143;DHT22;50437;51.970;5.904;2023-01-09T00:28:01;7.30;99.90
64143;DHT22;50437;51.970;5.904;2023-01-09T00:30:27;7.30;99.90
64143;DHT22;50437;51.970;5.904;2023-01-09T00:32:54;7.20;99.90
64143;DHT22;50437;51.970;5.904;2023-01-09T00:35:20;7.20;99.90
64143;DHT22;50437;51.970;5.904;2023-01-09T00:37:47;7.20;99.90
64143;DHT22;50437;51.970;5.904;2023-01-09T00:40:13;7.00;99.90
64143;DHT22;50437;51.970;5.904;2023-01-09T00:42:40;7.00;99.90
64143;DHT22;50437;51.970;5.904;2023-01-09T00:45:08;7.00;99.90
64143;DHT22;50437;51.970;5.904;2023-01-09T00:47:40;6.90;99.90
64143;DHT22;50437;51.970;5.904;2023-01-09T00:50:12;6.90;99.90
64143;DHT22;50437;51.970;5.904;2023-01-09T00:52:39;6.80;99.90
64143;DHT22;50437;51.970;5.904;2023-01-09T00:55:05;6.80;99.90
64143;DHT22;50437;51.970;5.904;2023-01-09T00:57:32;6.70;99.90
64143;DHT22;50437;51.970;5.904;2023-01-09T00:59:58;6.60;99.90
64143;DHT22;50437;51.970;5.904;2023-01-09T01:02:24;6.60;99.90
64143;DHT22;50437;51.970;5.904;2023-01-09T01:04:50;6.60;99.90
64143;DHT22;50437;51.970;5.904;2023-01-09T01:07:35;6.60;99.90
64143;DHT22;50437;51.970;5.904;2023-01-09T01:10:05;6.60;99.90
64143;DHT22;50437;51.970;5.904;2023-01-09T01:12:31;6.50;99.90
64143;DHT22;50437;51.970;5.904;2023-01-09T01:14:57;6.40;99.90
64143;DHT22;50437;51.970;5.904;2023-01-09T01:17:23;6.40;99.90
64143;DHT22;50437;51.970;5.904;2023-01-09T01:19:49;6.30;99.90
64143;DHT22;50437;51.970;5.904;2023-01-09T01:22:15;6.30;99.90
64143;DHT22;50437;51.970;5.904;2023-01-09T01:24:41;6.30;99.90
64143;DHT22;50437;51.970;5.904;2023-01-09T01:27:08;6.30;99.90
64143;DHT22;50437;51.970;5.904;2023-01-09T01:29:34;6.20;99.90
64143;DHT22;50437;51.970;5.904;2023-01-09T01:32:00;6.20;99.90
64143;DHT22;50437;51.970;5.904;2023-01-09T01:34:27;6.20;99.90
64143;DHT22;50437;51.970;5.904;2023-01-09T01:36:53;6.10;99.90
64143;DHT22;50437;51.970;5.904;2023-01-09T01:39:18;6.10;99.90
64143;DHT22;50437;51.970;5.904;2023-01-09T01:41:44;6.10;99.90
64143;DHT22;50437;51.970;5.904;2023-01-09T01:46:55;6.00;99.90
64143;DHT22;50437;51.970;5.904;2023-01-09T01:49:22;6.10;99.90
64143;DHT22;50437;51.970;5.904;2023-01-09T01:51:48;6.00;99.90
64143;DHT22;50437;51.970;5.904;2023-01-09T01:54:20;6.00;99.90
64143;DHT22;50437;51.970;5.904;2023-01-09T01:56:51;6.00;99.90
64143;DHT22;50437;51.970;5.904;2023-01-09T01:59:41;5.90;99.90
64143;DHT22;50437;51.970;5.904;2023-01-09T02:02:05;6.00;99.90
64143;DHT22;50437;51.970;5.904;2023-01-09T02:04:33;5.90;99.90
64143;DHT22;50437;51.970;5.904;2023-01-09T02:07:00;5.90;99.90
64143;DHT22;50437;51.970;5.904;2023-01-09T02:09:27;5.90;99.90
64143;DHT22;50437;51.970;5.904;2023-01-09T02:11:55;5.90;99.90
64143;DHT22;50437;51.970;5.904;2023-01-09T02:14:22;5.90;99.90
64143;DHT22;50437;51.970;5.904;2023-01-09T02:29:33;5.70;99.90
64143;DHT22;50437;51.970;5.904;2023-01-09T02:32:06;5.70;99.90
64143;DHT22;50437;51.970;5.904;2023-01-09T02:34:38;5.70;99.90
64143;DHT22;50437;51.970;5.904;2023-01-09T02:37:29;5.60;99.90
64143;DHT22;50437;51.970;5.904;2023-01-09T02:42:26;5.60;99.90
64143;DHT22;50437;51.970;5.904;2023-01-09T02:44:52;5.70;99.90
64143;DHT22;50437;51.970;5.904;2023-01-09T02:49:48;5.60;99.90
64143;DHT22;50437;51.970;5.904;2023-01-09T02:52:31;5.60;99.90
64143;DHT22;50437;51.970;5.904;2023-01-09T02:57:35;5.60;99.90
64143;DHT22;50437;51.970;5.904;2023-01-09T03:02:50;5.60;99.90
64143;DHT22;50437;51.970;5.904;2023-01-09T03:08:03;5.50;99.90
64143;DHT22;50437;51.970;5.904;2023-01-09T03:10:37;5.50;99.90
64143;DHT22;50437;51.970;5.904;2023-01-09T03:13:04;5.50;99.90
64143;DHT22;50437;51.970;5.904;2023-01-09T03:15:34;5.50;99.90
64143;DHT22;50437;51.970;5.904;2023-01-09T03:18:03;5.50;99.90
64143;DHT22;50437;51.970;5.904;2023-01-09T03:20:29;5.50;99.90
64143;DHT22;50437;51.970;5.904;2023-01-09T03:22:57;5.40;99.90
64143;DHT22;50437;51.970;5.904;2023-01-09T03:25:23;5.40;99.90
64143;DHT22;50437;51.970;5.904;2023-01-09T03:27:54;5.40;99.90
64143;DHT22;50437;51.970;5.904;2023-01-09T03:30:21;5.30;99.90
64143;DHT22;50437;51.970;5.904;2023-01-09T03:32:47;5.30;99.90
64143;DHT22;50437;51.970;5.904;2023-01-09T03:35:13;5.30;99.90
64143;DHT22;50437;51.970;5.904;2023-01-09T03:37:39;5.30;99.90
64143;DHT22;50437;51.970;5.904;2023-01-09T03:40:05;5.30;99.90
64143;DHT22;50437;51.970;5.904;2023-01-09T03:42:31;5.30;99.90
64143;DHT22;50437;51.970;5.904;2023-01-09T03:44:57;5.30;99.90
64143;DHT22;50437;51.970;5.904;2023-01-09T03:47:23;5.20;99.90
64143;DHT22;50437;51.970;5.904;2023-01-09T03:49:49;5.20;99.90
64143;DHT22;50437;51.970;5.904;2023-01-09T03:52:15;5.20;99.90
64143;DHT22;50437;51.970;5.904;2023-01-09T03:54:41;5.20;99.90
64143;DHT22;50437;51.970;5.904;2023-01-09T03:57:07;5.20;99.90
64143;DHT22;50437;51.970;5.904;2023-01-09T03:59:33;5.20;99.90
64143;DHT22;50437;51.970;5.904;2023-01-09T04:01:59;5.20;99.90
64143;DHT22;50437;51.970;5.904;2023-01-09T04:04:26;5.20;99.90
64143;DHT22;50437;51.970;5.904;2023-01-09T04:06:52;5.20;99.90
64143;DHT22;50437;51.970;5.904;2023-01-09T04:09:18;5.10;99.90
64143;DHT22;50437;51.970;5.904;2023-01-09T04:11:43;5.20;99.90
64143;DHT22;50437;51.970;5.904;2023-01-09T04:14:09;5.10;99.90
64143;DHT22;50437;51.970;5.904;2023-01-09T04:16:35;5.30;99.90
64143;DHT22;50437;51.970;5.904;2023-01-09T04:19:01;5.20;99.90
64143;DHT22;50437;51.970;5.904;2023-01-09T04:21:27;5.10;99.90
64143;DHT22;50437;51.970;5.904;2023-01-09T04:23:53;5.00;99.90
64143;DHT22;50437;51.970;5.904;2023-01-09T04:26:19;5.00;99.90
64143;DHT22;50437;51.970;5.904;2023-01-09T04:28:45;5.00;99.90
64143;DHT22;50437;51.970;5.904;2023-01-09T04:31:12;5.10;99.90
64143;DHT22;50437;51.970;5.904;2023-01-09T04:33:38;5.10;99.90
64143;DHT22;50437;51.970;5.904;2023-01-09T04:36:04;5.00;99.90
64143;DHT22;50437;51.970;5.904;2023-01-09T04:38:30;5.00;99.90
64143;DHT22;50437;51.970;5.904;2023-01-09T04:40:56;5.10;99.90
64143;DHT22;50437;51.970;5.904;2023-01-09T04:43:22;5.00;99.90
64143;DHT22;50437;51.970;5.904;2023-01-09T04:45:48;5.00;99.90
64143;DHT22;50437;51.970;5.904;2023-01-09T04:48:14;5.00;99.90
64143;DHT22;50437;51.970;5.904;2023-01-09T04:50:59;5.00;99.90
64143;DHT22;50437;51.970;5.904;2023-01-09T04:53:24;5.00;99.90
64143;DHT22;50437;51.970;5.904;2023-01-09T04:55:50;5.10;99.90
64143;DHT22;50437;51.970;5.904;2023-01-09T04:58:16;5.20;99.90
64143;DHT22;50437;51.970;5.904;2023-01-09T05:03:35;5.20;99.90
64143;DHT22;50437;51.970;5.904;2023-01-09T05:06:01;5.30;99.90
64143;DHT22;50437;51.970;5.904;2023-01-09T05:08:27;5.40;99.90
64143;DHT22;50437;51.970;5.904;2023-01-09T05:10:53;5.40;99.90
64143;DHT22;50437;51.970;5.904;2023-01-09T05:13:19;5.40;99.90
64143;DHT22;50437;51.970;5.904;2023-01-09T05:15:45;5.40;99.90
64143;DHT22;50437;51.970;5.904;2023-01-09T05:18:11;5.40;99.90
64143;DHT22;50437;51.970;5.904;2023-01-09T05:20:37;5.50;99.90
64143;DHT22;50437;51.970;5.904;2023-01-09T05:23:03;5.50;99.90
64143;DHT22;50437;51.970;5.904;2023-01-09T05:25:29;5.50;99.90
64143;DHT22;50437;51.970;5.904;2023-01-09T05:27:55;5.50;99.90
64143;DHT22;50437;51.970;5.904;2023-01-09T05:30:21;5.50;99.90
64143;DHT22;50437;51.970;5.904;2023-01-09T05:32:47;5.50;99.90
64143;DHT22;50437;51.970;5.904;2023-01-09T05:35:13;5.50;99.90
64143;DHT22;50437;51.970;5.904;2023-01-09T05:37:39;5.40;99.90
64143;DHT22;50437;51.970;5.904;2023-01-09T05:40:05;5.50;99.90
64143;DHT22;50437;51.970;5.904;2023-01-09T05:42:31;5.50;99.90
64143;DHT22;50437;51.970;5.904;2023-01-09T05:44:57;5.40;99.90
64143;DHT22;50437;51.970;5.904;2023-01-09T05:47:23;5.50;99.90
64143;DHT22;50437;51.970;5.904;2023-01-09T05:49:49;5.50;99.90
64143;DHT22;50437;51.970;5.904;2023-01-09T05:52:15;5.50;99.90
64143;DHT22;50437;51.970;5.904;2023-01-09T05:54:41;5.50;99.90
64143;DHT22;50437;51.970;5.904;2023-01-09T05:57:07;5.50;99.90
64143;DHT22;50437;51.970;5.904;2023-01-09T05:59:33;5.50;99.90
64143;DHT22;50437;51.970;5.904;2023-01-09T06:01:59;5.50;99.90
64143;DHT22;50437;51.970;5.904;2023-01-09T06:04:25;5.40;99.90
64143;DHT22;50437;51.970;5.904;2023-01-09T06:06:54;5.50;99.90
64143;DHT22;50437;51.970;5.904;2023-01-09T06:09:21;5.50;99.90
64143;DHT22;50437;51.970;5.904;2023-01-09T06:11:53;5.50;99.90
64143;DHT22;50437;51.970;5.904;2023-01-09T06:14:19;5.60;99.90
64143;DHT22;50437;51.970;5.904;2023-01-09T06:16:45;5.60;99.90
64143;DHT22;50437;51.970;5.904;2023-01-09T06:19:11;5.70;99.90
64143;DHT22;50437;51.970;5.904;2023-01-09T06:21:37;5.70;99.90
64143;DHT22;50437;51.970;5.904;2023-01-09T06:24:03;5.70;99.90
64143;DHT22;50437;51.970;5.904;2023-01-09T06:26:29;5.80;99.90
64143;DHT22;50437;51.970;5.904;2023-01-09T06:28:56;5.90;99.90
64143;DHT22;50437;51.970;5.904;2023-01-09T06:31:22;5.90;99.90
64143;DHT22;50437;51.970;5.904;2023-01-09T06:33:48;5.90;99.90
64143;DHT22;50437;51.970;5.904;2023-01-09T06:36:14;6.00;99.90
64143;DHT22;50437;51.970;5.904;2023-01-09T06:38:41;6.00;99.90
64143;DHT22;50437;51.970;5.904;2023-01-09T06:41:07;6.10;99.90
64143;DHT22;50437;51.970;5.904;2023-01-09T06:43:33;6.10;99.90
64143;DHT22;50437;51.970;5.904;2023-01-09T06:45:59;6.10;99.90
64143;DHT22;50437;51.970;5.904;2023-01-09T06:48:25;6.20;99.90
64143;DHT22;50437;51.970;5.904;2023-01-09T06:50:52;6.20;99.90
64143;DHT22;50437;51.970;5.904;2023-01-09T06:53:18;6.20;99.90
64143;DHT22;50437;51.970;5.904;2023-01-09T06:55:44;6.20;99.90
64143;DHT22;50437;51.970;5.904;2023-01-09T06:58:10;6.20;99.90
64143;DHT22;50437;51.970;5.904;2023-01-09T07:00:37;6.20;99.90
64143;DHT22;50437;51.970;5.904;2023-01-09T07:03:03;6.20;99.90
64143;DHT22;50437;51.970;5.904;2023-01-09T07:05:30;6.30;99.90
64143;DHT22;50437;51.970;5.904;2023-01-09T07:07:58;6.30;99.90
64143;DHT22;50437;51.970;5.904;2023-01-09T07:10:24;6.40;99.90
64143;DHT22;50437;51.970;5.904;2023-01-09T07:12:50;6.40;99.90
64143;DHT22;50437;51.970;5.904;2023-01-09T07:15:16;6.40;99.90
64143;DHT22;50437;51.970;5.904;2023-01-09T07:17:42;6.30;99.90
64143;DHT22;50437;51.970;5.904;2023-01-09T07:20:08;6.30;99.90
64143;DHT22;50437;51.970;5.904;2023-01-09T07:22:34;6.40;99.90
64143;DHT22;50437;51.970;5.904;2023-01-09T07:25:00;6.40;99.90
64143;DHT22;50437;51.970;5.904;2023-01-09T07:27:26;6.40;99.90
64143;DHT22;50437;51.970;5.904;2023-01-09T07:29:52;6.30;99.90
64143;DHT22;50437;51.970;5.904;2023-01-09T07:32:18;6.40;99.90
64143;DHT22;50437;51.970;5.904;2023-01-09T07:34:44;6.40;99.90
64143;DHT22;50437;51.970;5.904;2023-01-09T07:37:10;6.40;99.90
64143;DHT22;50437;51.970;5.904;2023-01-09T07:39:36;6.30;99.90
64143;DHT22;50437;51.970;5.904;2023-01-09T07:42:02;6.40;99.90
64143;DHT22;50437;51.970;5.904;2023-01-09T07:44:28;6.20;99.90
64143;DHT22;50437;51.970;5.904;2023-01-09T07:46:54;6.30;99.90
64143;DHT22;50437;51.970;5.904;2023-01-09T07:49:20;6.30;99.90
64143;DHT22;50437;51.970;5.904;2023-01-09T07:51:46;6.30;99.90
64143;DHT22;50437;51.970;5.904;2023-01-09T07:54:13;6.30;99.90
64143;DHT22;50437;51.970;5.904;2023-01-09T07:56:39;6.30;99.90
64143;DHT22;50437;51.970;5.904;2023-01-09T07:59:05;6.40;99.90
64143;DHT22;50437;51.970;5.904;2023-01-09T08:01:31;6.30;99.90
64143;DHT22;50437;51.970;5.904;2023-01-09T08:03:57;6.30;99.90
64143;DHT22;50437;51.970;5.904;2023-01-09T08:06:23;6.30;99.90
64143;DHT22;50437;51.970;5.904;2023-01-09T08:08:49;6.30;99.90
64143;DHT22;50437;51.970;5.904;2023-01-09T08:11:15;6.30;99.90
64143;DHT22;50437;51.970;5.904;2023-01-09T08:13:41;6.40;99.90
64143;DHT22;50437;51.970;5.904;2023-01-09T08:16:07;6.30;99.90
64143;DHT22;50437;51.970;5.904;2023-01-09T08:18:33;6.40;99.90
64143;DHT22;50437;51.970;5.904;2023-01-09T08:20:59;6.40;99.90
64143;DHT22;50437;51.970;5.904;2023-01-09T08:23:25;6.40;99.90
64143;DHT22;50437;51.970;5.904;2023-01-09T08:25:51;6.40;99.90
64143;DHT22;50437;51.970;5.904;2023-01-09T08:28:17;6.30;99.90
64143;DHT22;50437;51.970;5.904;2023-01-09T08:30:43;6.40;99.90
64143;DHT22;50437;51.970;5.904;2023-01-09T08:33:09;6.30;99.90
64143;DHT22;50437;51.970;5.904;2023-01-09T08:35:35;6.40;99.90
64143;DHT22;50437;51.970;5.904;2023-01-09T08:38:02;6.30;99.90
64143;DHT22;50437;51.970;5.904;2023-01-09T08:40:29;6.30;99.90
64143;DHT22;50437;51.970;5.904;2023-01-09T08:42:54;6.30;99.90
64143;DHT22;50437;51.970;5.904;2023-01-09T08:45:39;6.30;99.90
64143;DHT22;50437;51.970;5.904;2023-01-09T08:48:24;6.30;99.90
64143;DHT22;50437;51.970;5.904;2023-01-09T08:50:50;6.30;99.90
64143;DHT22;50437;51.970;5.904;2023-01-09T08:53:16;6.30;99.90
64143;DHT22;50437;51.970;5.904;2023-01-09T08:55:42;6.30;99.90
64143;DHT22;50437;51.970;5.904;2023-01-09T08:58:09;6.40;99.90
64143;DHT22;50437;51.970;5.904;2023-01-09T09:00:35;6.40;99.90
64143;DHT22;50437;51.970;5.904;2023-01-09T09:03:01;6.40;99.90
64143;DHT22;50437;51.970;5.904;2023-01-09T09:05:27;6.50;99.90
64143;DHT22;50437;51.970;5.904;2023-01-09T09:07:54;6.60;99.90
64143;DHT22;50437;51.970;5.904;2023-01-09T09:10:21;6.50;99.90
64143;DHT22;50437;51.970;5.904;2023-01-09T09:12:47;6.60;99.90
64143;DHT22;50437;51.970;5.904;2023-01-09T09:15:14;6.50;99.90
64143;DHT22;50437;51.970;5.904;2023-01-09T09:17:45;6.60;99.90
64143;DHT22;50437;51.970;5.904;2023-01-09T09:20:13;6.60;99.90
64143;DHT22;50437;51.970;5.904;2023-01-09T09:22:39;6.60;99.90
64143;DHT22;50437;51.970;5.904;2023-01-09T09:25:05;6.60;99.90
64143;DHT22;50437;51.970;5.904;2023-01-09T09:27:31;6.60;99.90
64143;DHT22;50437;51.970;5.904;2023-01-09T09:30:01;6.60;99.90
64143;DHT22;50437;51.970;5.904;2023-01-09T09:32:27;6.70;99.90
64143;DHT22;50437;51.970;5.904;2023-01-09T09:34:53;6.70;99.90
64143;DHT22;50437;51.970;5.904;2023-01-09T09:37:19;6.80;99.90
64143;DHT22;50437;51.970;5.904;2023-01-09T09:39:45;6.90;99.90
64143;DHT22;50437;51.970;5.904;2023-01-09T09:42:16;6.90;99.90
64143;DHT22;50437;51.970;5.904;2023-01-09T09:50:17;6.80;99.90
64143;DHT22;50437;51.970;5.904;2023-01-09T09:53:09;6.80;99.90
64143;DHT22;50437;51.970;5.904;2023-01-09T09:55:37;6.80;99.90
64143;DHT22;50437;51.970;5.904;2023-01-09T09:58:06;6.70;99.90
64143;DHT22;50437;51.970;5.904;2023-01-09T10:00:34;6.80;99.90
64143;DHT22;50437;51.970;5.904;2023-01-09T10:03:02;6.80;99.90
64143;DHT22;50437;51.970;5.904;2023-01-09T10:05:30;6.80;99.90
64143;DHT22;50437;51.970;5.904;2023-01-09T10:08:00;6.90;99.90
64143;DHT22;50437;51.970;5.904;2023-01-09T10:10:28;7.00;99.90
64143;DHT22;50437;51.970;5.904;2023-01-09T10:12:57;7.00;99.90
64143;DHT22;50437;51.970;5.904;2023-01-09T10:15:34;7.00;99.90
64143;DHT22;50437;51.970;5.904;2023-01-09T10:18:16;7.00;99.90
64143;DHT22;50437;51.970;5.904;2023-01-09T10:20:47;7.10;99.90
64143;DHT22;50437;51.970;5.904;2023-01-09T10:25:50;7.30;99.90
64143;DHT22;50437;51.970;5.904;2023-01-09T10:31:14;7.40;99.90
64143;DHT22;50437;51.970;5.904;2023-01-09T10:36:50;7.50;99.90
64143;DHT22;50437;51.970;5.904;2023-01-09T10:39:22;7.40;99.90
64143;DHT22;50437;51.970;5.904;2023-01-09T10:44:38;7.30;99.90
64143;DHT22;50437;51.970;5.904;2023-01-09T10:47:15;7.40;99.90
64143;DHT22;50437;51.970;5.904;2023-01-09T10:49:41;7.30;99.90
64143;DHT22;50437;51.970;5.904;2023-01-09T10:54:36;7.30;99.90
64143;DHT22;50437;51.970;5.904;2023-01-09T10:57:06;7.30;99.90
64143;DHT22;50437;51.970;5.904;2023-01-09T10:59:35;7.20;99.90
64143;DHT22;50437;51.970;5.904;2023-01-09T11:02:01;7.10;99.90
64143;DHT22;50437;51.970;5.904;2023-01-09T11:04:35;7.20;99.90
64143;DHT22;50437;51.970;5.904;2023-01-09T11:07:06;7.30;99.90
64143;DHT22;50437;51.970;5.904;2023-01-09T11:12:22;7.40;99.90
64143;DHT22;50437;51.970;5.904;2023-01-09T11:14:49;7.50;99.90
64143;DHT22;50437;51.970;5.904;2023-01-09T11:17:19;7.40;99.90
64143;DHT22;50437;51.970;5.904;2023-01-09T11:22:41;7.40;99.90
64143;DHT22;50437;51.970;5.904;2023-01-09T11:25:16;7.40;99.90
64143;DHT22;50437;51.970;5.904;2023-01-09T11:27:43;7.40;99.90
64143;DHT22;50437;51.970;5.904;2023-01-09T11:30:36;7.60;99.90
64143;DHT22;50437;51.970;5.904;2023-01-09T11:33:13;7.80;99.90
64143;DHT22;50437;51.970;5.904;2023-01-09T11:35:48;8.00;99.90
64143;DHT22;50437;51.970;5.904;2023-01-09T11:38:19;8.00;99.90
64143;DHT22;50437;51.970;5.904;2023-01-09T11:43:18;7.70;99.90
64143;DHT22;50437;51.970;5.904;2023-01-09T11:45:55;7.80;99.90
64143;DHT22;50437;51.970;5.904;2023-01-09T11:50:56;8.00;99.90
64143;DHT22;50437;51.970;5.904;2023-01-09T11:53:23;8.10;99.90
64143;DHT22;50437;51.970;5.904;2023-01-09T11:56:01;8.40;99.90
64143;DHT22;50437;51.970;5.904;2023-01-09T11:58:34;8.30;99.90
64143;DHT22;50437;51.970;5.904;2023-01-09T12:12:17;8.90;99.90
64143;DHT22;50437;51.970;5.904;2023-01-09T12:17:24;9.50;99.90
64143;DHT22;50437;51.970;5.904;2023-01-09T12:25:37;9.20;99.90
64143;DHT22;50437;51.970;5.904;2023-01-09T12:28:10;9.40;99.90
64143;DHT22;50437;51.970;5.904;2023-01-09T12:30:46;9.20;99.90
64143;DHT22;50437;51.970;5.904;2023-01-09T12:33:23;9.00;99.90
64143;DHT22;50437;51.970;5.904;2023-01-09T12:49:27;8.30;99.90
64143;DHT22;50437;51.970;5.904;2023-01-09T12:54:48;8.40;99.90
64143;DHT22;50437;51.970;5.904;2023-01-09T13:03:06;8.60;99.90
64143;DHT22;50437;51.970;5.904;2023-01-09T13:08:38;8.60;99.90
64143;DHT22;50437;51.970;5.904;2023-01-09T13:11:10;8.50;99.90
64143;DHT22;50437;51.970;5.904;2023-01-09T13:13:45;8.50;99.90
64143;DHT22;50437;51.970;5.904;2023-01-09T13:16:13;8.50;99.90
64143;DHT22;50437;51.970;5.904;2023-01-09T13:18:46;8.50;99.90
64143;DHT22;50437;51.970;5.904;2023-01-09T13:21:13;8.50;99.90
64143;DHT22;50437;51.970;5.904;2023-01-09T13:23:45;8.50;99.90
64143;DHT22;50437;51.970;5.904;2023-01-09T13:26:24;8.50;99.90
64143;DHT22;50437;51.970;5.904;2023-01-09T13:28:53;8.60;99.90
64143;DHT22;50437;51.970;5.904;2023-01-09T13:31:38;8.70;99.90
64143;DHT22;50437;51.970;5.904;2023-01-09T13:34:12;8.60;99.90
64143;DHT22;50437;51.970;5.904;2023-01-09T13:36:39;8.40;99.90
64143;DHT22;50437;51.970;5.904;2023-01-09T13:39:26;8.30;99.90
64143;DHT22;50437;51.970;5.904;2023-01-09T13:41:53;8.20;99.90
64143;DHT22;50437;51.970;5.904;2023-01-09T13:44:40;8.20;99.90
64143;DHT22;50437;51.970;5.904;2023-01-09T13:47:13;8.10;99.90
64143;DHT22;50437;51.970;5.904;2023-01-09T13:57:32;8.10;99.90
64143;DHT22;50437;51.970;5.904;2023-01-09T14:05:10;7.90;99.90
64143;DHT22;50437;51.970;5.904;2023-01-09T14:07:37;7.80;99.90
64143;DHT22;50437;51.970;5.904;2023-01-09T14:10:19;7.80;99.90
64143;DHT22;50437;51.970;5.904;2023-01-09T14:12:46;7.80;99.90
64143;DHT22;50437;51.970;5.904;2023-01-09T14:15:26;7.80;99.90
64143;DHT22;50437;51.970;5.904;2023-01-09T14:17:57;7.80;99.90
64143;DHT22;50437;51.970;5.904;2023-01-09T14:20:29;7.80;99.90
64143;DHT22;50437;51.970;5.904;2023-01-09T14:22:58;7.80;99.90
64143;DHT22;50437;51.970;5.904;2023-01-09T14:25:25;7.80;99.90
64143;DHT22;50437;51.970;5.904;2023-01-09T14:32:54;7.70;99.90
64143;DHT22;50437;51.970;5.904;2023-01-09T14:35:31;7.70;99.90
64143;DHT22;50437;51.970;5.904;2023-01-09T14:43:58;7.50;99.90
64143;DHT22;50437;51.970;5.904;2023-01-09T14:46:22;7.50;99.90
64143;DHT22;50437;51.970;5.904;2023-01-09T14:48:59;7.40;99.90
64143;DHT22;50437;51.970;5.904;2023-01-09T14:51:28;7.50;99.90
64143;DHT22;50437;51.970;5.904;2023-01-09T14:53:55;7.40;99.90
64143;DHT22;50437;51.970;5.904;2023-01-09T14:56:29;7.40;99.90
64143;DHT22;50437;51.970;5.904;2023-01-09T14:59:05;7.30;99.90
64143;DHT22;50437;51.970;5.904;2023-01-09T15:01:35;7.40;99.90
64143;DHT22;50437;51.970;5.904;2023-01-09T15:04:06;7.40;99.90
64143;DHT22;50437;51.970;5.904;2023-01-09T15:06:36;7.40;99.90
64143;DHT22;50437;51.970;5.904;2023-01-09T15:09:06;7.30;99.90
64143;DHT22;50437;51.970;5.904;2023-01-09T15:11:33;7.30;99.90
64143;DHT22;50437;51.970;5.904;2023-01-09T15:14:05;7.30;99.90
64143;DHT22;50437;51.970;5.904;2023-01-09T15:16:34;7.30;99.90
64143;DHT22;50437;51.970;5.904;2023-01-09T15:19:18;7.30;99.90
64143;DHT22;50437;51.970;5.904;2023-01-09T15:21:57;7.30;99.90
64143;DHT22;50437;51.970;5.904;2023-01-09T15:24:43;7.30;99.90
64143;DHT22;50437;51.970;5.904;2023-01-09T15:27:10;7.30;99.90
64143;DHT22;50437;51.970;5.904;2023-01-09T15:29:36;7.30;99.90
64143;DHT22;50437;51.970;5.904;2023-01-09T15:32:04;7.30;99.90
64143;DHT22;50437;51.970;5.904;2023-01-09T15:34:33;7.20;99.90
64143;DHT22;50437;51.970;5.904;2023-01-09T15:37:00;7.20;99.90
64143;DHT22;50437;51.970;5.904;2023-01-09T15:39:29;7.20;99.90
64143;DHT22;50437;51.970;5.904;2023-01-09T15:41:59;7.10;99.90
64143;DHT22;50437;51.970;5.904;2023-01-09T15:44:44;7.00;99.90
64143;DHT22;50437;51.970;5.904;2023-01-09T15:47:19;6.90;99.90
64143;DHT22;50437;51.970;5.904;2023-01-09T15:49:46;6.80;99.90
64143;DHT22;50437;51.970;5.904;2023-01-09T15:52:13;6.80;99.90
64143;DHT22;50437;51.970;5.904;2023-01-09T15:54:40;6.80;99.90
64143;DHT22;50437;51.970;5.904;2023-01-09T15:57:50;6.80;99.90
64143;DHT22;50437;51.970;5.904;2023-01-09T16:02:43;6.70;99.90
64143;DHT22;50437;51.970;5.904;2023-01-09T16:05:29;6.70;99.90
64143;DHT22;50437;51.970;5.904;2023-01-09T16:07:57;6.70;99.90
64143;DHT22;50437;51.970;5.904;2023-01-09T16:10:25;6.60;99.90
64143;DHT22;50437;51.970;5.904;2023-01-09T16:12:55;6.50;99.90
64143;DHT22;50437;51.970;5.904;2023-01-09T16:15:24;6.60;99.90
64143;DHT22;50437;51.970;5.904;2023-01-09T16:20:33;6.60;99.90
64143;DHT22;50437;51.970;5.904;2023-01-09T16:23:02;6.60;99.90
64143;DHT22;50437;51.970;5.904;2023-01-09T16:25:28;6.50;99.90
64143;DHT22;50437;51.970;5.904;2023-01-09T16:33:18;6.50;99.90
64143;DHT22;50437;51.970;5.904;2023-01-09T16:35:44;6.50;99.90
64143;DHT22;50437;51.970;5.904;2023-01-09T16:38:12;6.60;99.90
64143;DHT22;50437;51.970;5.904;2023-01-09T16:43:45;6.50;99.90
64143;DHT22;50437;51.970;5.904;2023-01-09T16:46:12;6.40;99.90
64143;DHT22;50437;51.970;5.904;2023-01-09T16:48:41;6.40;99.90
64143;DHT22;50437;51.970;5.904;2023-01-09T16:51:17;6.40;99.90
64143;DHT22;50437;51.970;5.904;2023-01-09T16:53:44;6.40;99.90
64143;DHT22;50437;51.970;5.904;2023-01-09T16:56:19;6.30;99.90
64143;DHT22;50437;51.970;5.904;2023-01-09T16:58:48;6.30;99.90
64143;DHT22;50437;51.970;5.904;2023-01-09T17:01:15;6.30;99.90
64143;DHT22;50437;51.970;5.904;2023-01-09T17:03:41;6.30;99.90
64143;DHT22;50437;51.970;5.904;2023-01-09T17:06:09;6.30;99.90
64143;DHT22;50437;51.970;5.904;2023-01-09T17:08:38;6.20;99.90
64143;DHT22;50437;51.970;5.904;2023-01-09T17:11:04;6.30;99.90
64143;DHT22;50437;51.970;5.904;2023-01-09T17:13:31;6.20;99.90
64143;DHT22;50437;51.970;5.904;2023-01-09T17:15:59;6.20;99.90
64143;DHT22;50437;51.970;5.904;2023-01-09T17:18:28;6.20;99.90
64143;DHT22;50437;51.970;5.904;2023-01-09T17:21:01;6.20;99.90
64143;DHT22;50437;51.970;5.904;2023-01-09T17:23:26;6.20;99.90
64143;DHT22;50437;51.970;5.904;2023-01-09T17:25:55;6.30;99.90
64143;DHT22;50437;51.970;5.904;2023-01-09T17:28:47;6.20;99.90
64143;DHT22;50437;51.970;5.904;2023-01-09T17:31:14;6.30;99.90
64143;DHT22;50437;51.970;5.904;2023-01-09T17:33:40;6.40;99.90
64143;DHT22;50437;51.970;5.904;2023-01-09T17:36:29;6.40;99.90
64143;DHT22;50437;51.970;5.904;2023-01-09T17:38:53;6.50;99.90
64143;DHT22;50437;51.970;5.904;2023-01-09T17:41:23;6.50;99.90
64143;DHT22;50437;51.970;5.904;2023-01-09T17:43:50;6.60;99.90
64143;DHT22;50437;51.970;5.904;2023-01-09T17:46:17;6.60;99.90
64143;DHT22;50437;51.970;5.904;2023-01-09T17:48:46;6.60;99.90
64143;DHT22;50437;51.970;5.904;2023-01-09T17:51:12;6.60;99.90
64143;DHT22;50437;51.970;5.904;2023-01-09T17:53:38;6.70;99.90
64143;DHT22;50437;51.970;5.904;2023-01-09T17:56:04;6.70;99.90
64143;DHT22;50437;51.970;5.904;2023-01-09T17:58:33;6.70;99.90
64143;DHT22;50437;51.970;5.904;2023-01-09T18:00:59;6.60;99.90
64143;DHT22;50437;51.970;5.904;2023-01-09T18:03:25;6.60;99.90
64143;DHT22;50437;51.970;5.904;2023-01-09T18:05:59;6.60;99.90
64143;DHT22;50437;51.970;5.904;2023-01-09T18:08:26;6.60;99.90
64143;DHT22;50437;51.970;5.904;2023-01-09T18:10:52;6.60;99.90
64143;DHT22;50437;51.970;5.904;2023-01-09T18:13:18;6.60;99.90
64143;DHT22;50437;51.970;5.904;2023-01-09T18:15:44;6.50;99.90
64143;DHT22;50437;51.970;5.904;2023-01-09T18:18:10;6.50;99.90